sensor_id;sensor_type;location;lat;lon;timestamp;P1;durP1;ratioP1;P2;durP2;ratioP2
5995;SDS011;3026;53.612;7.278;2023-07-31T00:01:30;6.33;;;2.53;;
5995;SDS011;3026;53.612;7.278;2023-07-31T00:03:59;5.63;;;2.47;;
5995;SDS011;3026;53.612;7.278;2023-07-31T00:06:28;4.63;;;2.43;;
5995;SDS011;3026;53.612;7.278;2023-07-31T00:08:55;3.27;;;2.47;;
5995;SDS011;3026;53.612;7.278;2023-07-31T00:11:22;4.70;;;2.97;;
5995;SDS011;3026;53.612;7.278;2023-07-31T00:13:49;7.00;;;3.03;;
5995;SDS011;3026;53.612;7.278;2023-07-31T00:16:16;3.87;;;2.80;;
5995;SDS011;3026;53.612;7.278;2023-07-31T00:18:43;4.97;;;2.77;;
5995;SDS011;3026;53.612;7.278;2023-07-31T00:21:12;4.93;;;2.63;;
5995;SDS011;3026;53.612;7.278;2023-07-31T00:23:39;4.70;;;3.17;;
5995;SDS011;3026;53.612;7.278;2023-07-31T00:26:08;5.97;;;3.33;;
5995;SDS011;3026;53.612;7.278;2023-07-31T00:28:35;5.03;;;3.40;;
5995;SDS011;3026;53.612;7.278;2023-07-31T00:31:05;4.80;;;2.83;;
5995;SDS011;3026;53.612;7.278;2023-07-31T00:33:34;3.93;;;3.40;;
5995;SDS011;3026;53.612;7.278;2023-07-31T00:36:01;8.30;;;3.17;;
5995;SDS011;3026;53.612;7.278;2023-07-31T00:38:32;6.57;;;3.10;;
5995;SDS011;3026;53.612;7.278;2023-07-31T00:40:59;4.03;;;3.00;;
5995;SDS011;3026;53.612;7.278;2023-07-31T00:43:26;3.97;;;3.30;;
5995;SDS011;3026;53.612;7.278;2023-07-31T00:45:53;3.20;;;2.90;;
5995;SDS011;3026;53.612;7.278;2023-07-31T00:48:20;3.50;;;3.07;;
5995;SDS011;3026;53.612;7.278;2023-07-31T00:50:48;6.17;;;3.20;;
5995;SDS011;3026;53.612;7.278;2023-07-31T00:53:15;4.73;;;2.63;;
5995;SDS011;3026;53.612;7.278;2023-07-31T00:55:46;3.97;;;2.90;;
5995;SDS011;3026;53.612;7.278;2023-07-31T00:58:13;3.87;;;3.10;;
5995;SDS011;3026;53.612;7.278;2023-07-31T01:00:41;4.50;;;3.20;;
5995;SDS011;3026;53.612;7.278;2023-07-31T01:03:09;3.80;;;2.53;;
5995;SDS011;3026;53.612;7.278;2023-07-31T01:05:38;4.60;;;2.40;;
5995;SDS011;3026;53.612;7.278;2023-07-31T01:08:11;5.07;;;2.90;;
5995;SDS011;3026;53.612;7.278;2023-07-31T01:10:48;6.60;;;2.90;;
5995;SDS011;3026;53.612;7.278;2023-07-31T01:13:19;6.10;;;3.27;;
5995;SDS011;3026;53.612;7.278;2023-07-31T01:15:46;2.83;;;2.27;;
5995;SDS011;3026;53.612;7.278;2023-07-31T01:18:13;4.87;;;2.67;;
5995;SDS011;3026;53.612;7.278;2023-07-31T01:20:41;5.97;;;2.57;;
5995;SDS011;3026;53.612;7.278;2023-07-31T01:26:12;5.43;;;3.00;;
5995;SDS011;3026;53.612;7.278;2023-07-31T01:28:46;4.03;;;3.00;;
5995;SDS011;3026;53.612;7.278;2023-07-31T01:31:21;3.70;;;2.87;;
5995;SDS011;3026;53.612;7.278;2023-07-31T01:33:50;4.03;;;3.00;;
5995;SDS011;3026;53.612;7.278;2023-07-31T01:36:22;6.33;;;3.43;;
5995;SDS011;3026;53.612;7.278;2023-07-31T01:38:49;3.80;;;3.37;;
5995;SDS011;3026;53.612;7.278;2023-07-31T01:41:18;5.50;;;3.50;;
5995;SDS011;3026;53.612;7.278;2023-07-31T01:43:45;4.47;;;3.40;;
5995;SDS011;3026;53.612;7.278;2023-07-31T01:46:14;3.90;;;3.07;;
5995;SDS011;3026;53.612;7.278;2023-07-31T01:48:41;3.43;;;2.87;;
5995;SDS011;3026;53.612;7.278;2023-07-31T01:51:08;7.37;;;2.87;;
5995;SDS011;3026;53.612;7.278;2023-07-31T01:53:35;4.37;;;2.40;;
5995;SDS011;3026;53.612;7.278;2023-07-31T01:56:03;4.90;;;2.80;;
5995;SDS011;3026;53.612;7.278;2023-07-31T01:58:31;2.57;;;2.37;;
5995;SDS011;3026;53.612;7.278;2023-07-31T02:00:58;5.13;;;2.33;;
5995;SDS011;3026;53.612;7.278;2023-07-31T02:03:26;3.77;;;2.30;;
5995;SDS011;3026;53.612;7.278;2023-07-31T02:05:53;3.67;;;2.33;;
5995;SDS011;3026;53.612;7.278;2023-07-31T02:08:22;2.43;;;1.90;;
5995;SDS011;3026;53.612;7.278;2023-07-31T02:10:49;2.13;;;1.80;;
5995;SDS011;3026;53.612;7.278;2023-07-31T02:13:15;1.70;;;1.60;;
5995;SDS011;3026;53.612;7.278;2023-07-31T02:15:44;2.63;;;2.13;;
5995;SDS011;3026;53.612;7.278;2023-07-31T02:18:11;1.60;;;1.50;;
5995;SDS011;3026;53.612;7.278;2023-07-31T02:20:38;5.00;;;2.07;;
5995;SDS011;3026;53.612;7.278;2023-07-31T02:23:05;2.57;;;1.80;;
5995;SDS011;3026;53.612;7.278;2023-07-31T02:25:32;3.90;;;2.20;;
5995;SDS011;3026;53.612;7.278;2023-07-31T02:27:59;3.50;;;1.93;;
5995;SDS011;3026;53.612;7.278;2023-07-31T02:30:26;2.70;;;1.80;;
5995;SDS011;3026;53.612;7.278;2023-07-31T02:32:55;2.23;;;2.03;;
5995;SDS011;3026;53.612;7.278;2023-07-31T02:35:26;1.90;;;1.70;;
5995;SDS011;3026;53.612;7.278;2023-07-31T02:37:53;3.00;;;2.13;;
5995;SDS011;3026;53.612;7.278;2023-07-31T02:40:20;2.60;;;2.33;;
5995;SDS011;3026;53.612;7.278;2023-07-31T02:42:53;2.40;;;2.20;;
5995;SDS011;3026;53.612;7.278;2023-07-31T02:45:22;4.30;;;2.03;;
5995;SDS011;3026;53.612;7.278;2023-07-31T02:47:49;1.90;;;1.80;;
5995;SDS011;3026;53.612;7.278;2023-07-31T02:50:18;2.30;;;1.87;;
5995;SDS011;3026;53.612;7.278;2023-07-31T02:52:44;1.67;;;1.57;;
5995;SDS011;3026;53.612;7.278;2023-07-31T02:55:11;3.20;;;2.07;;
5995;SDS011;3026;53.612;7.278;2023-07-31T02:57:38;2.53;;;1.80;;
5995;SDS011;3026;53.612;7.278;2023-07-31T03:00:08;3.57;;;1.80;;
5995;SDS011;3026;53.612;7.278;2023-07-31T03:02:35;2.70;;;1.80;;
5995;SDS011;3026;53.612;7.278;2023-07-31T03:05:03;2.33;;;2.10;;
5995;SDS011;3026;53.612;7.278;2023-07-31T03:07:32;3.83;;;2.00;;
5995;SDS011;3026;53.612;7.278;2023-07-31T03:09:59;1.70;;;1.60;;
5995;SDS011;3026;53.612;7.278;2023-07-31T03:12:25;2.80;;;2.30;;
5995;SDS011;3026;53.612;7.278;2023-07-31T03:14:53;2.10;;;1.90;;
5995;SDS011;3026;53.612;7.278;2023-07-31T03:17:20;4.40;;;2.03;;
5995;SDS011;3026;53.612;7.278;2023-07-31T03:19:47;2.40;;;2.10;;
5995;SDS011;3026;53.612;7.278;2023-07-31T03:22:17;5.97;;;2.67;;
5995;SDS011;3026;53.612;7.278;2023-07-31T03:24:48;2.50;;;2.30;;
5995;SDS011;3026;53.612;7.278;2023-07-31T03:27:17;3.97;;;2.17;;
5995;SDS011;3026;53.612;7.278;2023-07-31T03:29:45;2.70;;;2.20;;
5995;SDS011;3026;53.612;7.278;2023-07-31T03:32:15;2.33;;;2.00;;
5995;SDS011;3026;53.612;7.278;2023-07-31T03:34:46;2.63;;;2.43;;
5995;SDS011;3026;53.612;7.278;2023-07-31T03:37:13;2.83;;;2.57;;
5995;SDS011;3026;53.612;7.278;2023-07-31T03:39:40;3.63;;;2.50;;
5995;SDS011;3026;53.612;7.278;2023-07-31T03:42:09;3.70;;;2.20;;
5995;SDS011;3026;53.612;7.278;2023-07-31T03:44:36;3.77;;;2.77;;
5995;SDS011;3026;53.612;7.278;2023-07-31T03:47:03;2.70;;;2.20;;
5995;SDS011;3026;53.612;7.278;2023-07-31T03:49:32;3.03;;;2.20;;
5995;SDS011;3026;53.612;7.278;2023-07-31T03:54:40;2.13;;;1.93;;
5995;SDS011;3026;53.612;7.278;2023-07-31T03:57:13;1.90;;;1.80;;
5995;SDS011;3026;53.612;7.278;2023-07-31T03:59:43;1.63;;;1.53;;
5995;SDS011;3026;53.612;7.278;2023-07-31T04:02:10;2.30;;;1.70;;
5995;SDS011;3026;53.612;7.278;2023-07-31T04:04:42;1.60;;;1.50;;
5995;SDS011;3026;53.612;7.278;2023-07-31T04:07:11;2.83;;;1.30;;
5995;SDS011;3026;53.612;7.278;2023-07-31T04:09:39;1.47;;;1.37;;
5995;SDS011;3026;53.612;7.278;2023-07-31T04:12:49;2.33;;;1.80;;
5995;SDS011;3026;53.612;7.278;2023-07-31T04:15:18;1.83;;;1.20;;
5995;SDS011;3026;53.612;7.278;2023-07-31T04:17:49;3.03;;;1.13;;
5995;SDS011;3026;53.612;7.278;2023-07-31T04:20:17;2.00;;;1.10;;
5995;SDS011;3026;53.612;7.278;2023-07-31T04:22:44;1.40;;;1.17;;
5995;SDS011;3026;53.612;7.278;2023-07-31T04:25:11;1.87;;;1.37;;
5995;SDS011;3026;53.612;7.278;2023-07-31T04:27:39;1.30;;;1.20;;
5995;SDS011;3026;53.612;7.278;2023-07-31T04:30:14;1.83;;;1.10;;
5995;SDS011;3026;53.612;7.278;2023-07-31T04:32:44;1.67;;;1.07;;
5995;SDS011;3026;53.612;7.278;2023-07-31T04:35:11;3.00;;;1.20;;
5995;SDS011;3026;53.612;7.278;2023-07-31T04:37:38;1.47;;;1.27;;
5995;SDS011;3026;53.612;7.278;2023-07-31T04:40:07;2.40;;;1.57;;
5995;SDS011;3026;53.612;7.278;2023-07-31T04:42:37;3.20;;;1.43;;
5995;SDS011;3026;53.612;7.278;2023-07-31T04:45:05;2.07;;;1.60;;
5995;SDS011;3026;53.612;7.278;2023-07-31T04:47:34;3.43;;;1.47;;
5995;SDS011;3026;53.612;7.278;2023-07-31T04:50:01;1.70;;;1.60;;
5995;SDS011;3026;53.612;7.278;2023-07-31T04:52:28;3.27;;;1.40;;
5995;SDS011;3026;53.612;7.278;2023-07-31T04:54:55;2.10;;;1.47;;
5995;SDS011;3026;53.612;7.278;2023-07-31T04:57:23;4.00;;;1.20;;
5995;SDS011;3026;53.612;7.278;2023-07-31T04:59:53;2.57;;;1.63;;
5995;SDS011;3026;53.612;7.278;2023-07-31T05:02:23;1.90;;;1.43;;
5995;SDS011;3026;53.612;7.278;2023-07-31T05:04:57;1.43;;;1.33;;
5995;SDS011;3026;53.612;7.278;2023-07-31T05:07:24;2.80;;;1.60;;
5995;SDS011;3026;53.612;7.278;2023-07-31T05:09:54;1.63;;;1.33;;
5995;SDS011;3026;53.612;7.278;2023-07-31T05:12:23;2.03;;;1.20;;
5995;SDS011;3026;53.612;7.278;2023-07-31T05:14:51;1.60;;;1.13;;
5995;SDS011;3026;53.612;7.278;2023-07-31T05:17:18;2.53;;;1.17;;
5995;SDS011;3026;53.612;7.278;2023-07-31T05:19:47;2.97;;;1.40;;
5995;SDS011;3026;53.612;7.278;2023-07-31T05:22:16;1.13;;;1.03;;
5995;SDS011;3026;53.612;7.278;2023-07-31T05:24:44;1.97;;;1.50;;
5995;SDS011;3026;53.612;7.278;2023-07-31T05:27:14;2.37;;;1.90;;
5995;SDS011;3026;53.612;7.278;2023-07-31T05:29:43;3.23;;;1.47;;
5995;SDS011;3026;53.612;7.278;2023-07-31T05:32:12;4.47;;;1.20;;
5995;SDS011;3026;53.612;7.278;2023-07-31T05:34:39;1.50;;;1.40;;
5995;SDS011;3026;53.612;7.278;2023-07-31T05:37:09;1.80;;;1.50;;
5995;SDS011;3026;53.612;7.278;2023-07-31T05:39:44;1.90;;;1.57;;
5995;SDS011;3026;53.612;7.278;2023-07-31T05:42:12;2.40;;;1.53;;
5995;SDS011;3026;53.612;7.278;2023-07-31T05:44:39;1.47;;;1.37;;
5995;SDS011;3026;53.612;7.278;2023-07-31T05:47:06;2.57;;;1.53;;
5995;SDS011;3026;53.612;7.278;2023-07-31T05:49:33;3.03;;;1.60;;
5995;SDS011;3026;53.612;7.278;2023-07-31T05:52:00;1.70;;;1.30;;
5995;SDS011;3026;53.612;7.278;2023-07-31T05:54:27;1.93;;;1.60;;
5995;SDS011;3026;53.612;7.278;2023-07-31T05:56:56;1.20;;;1.10;;
5995;SDS011;3026;53.612;7.278;2023-07-31T05:59:23;2.30;;;1.47;;
5995;SDS011;3026;53.612;7.278;2023-07-31T06:01:52;2.60;;;1.27;;
5995;SDS011;3026;53.612;7.278;2023-07-31T06:04:19;2.67;;;1.17;;
5995;SDS011;3026;53.612;7.278;2023-07-31T06:06:50;4.20;;;1.20;;
5995;SDS011;3026;53.612;7.278;2023-07-31T06:09:17;1.20;;;0.90;;
5995;SDS011;3026;53.612;7.278;2023-07-31T06:11:46;1.10;;;1.10;;
5995;SDS011;3026;53.612;7.278;2023-07-31T06:14:15;2.13;;;1.03;;
5995;SDS011;3026;53.612;7.278;2023-07-31T06:16:43;3.30;;;1.10;;
5995;SDS011;3026;53.612;7.278;2023-07-31T06:19:11;2.27;;;1.10;;
5995;SDS011;3026;53.612;7.278;2023-07-31T06:21:38;4.23;;;1.20;;
5995;SDS011;3026;53.612;7.278;2023-07-31T06:24:09;1.43;;;1.00;;
5995;SDS011;3026;53.612;7.278;2023-07-31T06:26:41;1.00;;;0.87;;
5995;SDS011;3026;53.612;7.278;2023-07-31T06:29:14;1.77;;;0.90;;
5995;SDS011;3026;53.612;7.278;2023-07-31T06:31:49;1.20;;;1.07;;
5995;SDS011;3026;53.612;7.278;2023-07-31T06:34:19;1.50;;;0.93;;
5995;SDS011;3026;53.612;7.278;2023-07-31T06:36:49;2.40;;;0.90;;
5995;SDS011;3026;53.612;7.278;2023-07-31T06:39:22;0.90;;;0.90;;
5995;SDS011;3026;53.612;7.278;2023-07-31T06:41:49;1.37;;;1.20;;
5995;SDS011;3026;53.612;7.278;2023-07-31T06:44:21;2.20;;;1.00;;
5995;SDS011;3026;53.612;7.278;2023-07-31T06:46:48;2.93;;;1.20;;
5995;SDS011;3026;53.612;7.278;2023-07-31T06:49:17;1.30;;;1.00;;
5995;SDS011;3026;53.612;7.278;2023-07-31T06:51:56;1.37;;;1.10;;
5995;SDS011;3026;53.612;7.278;2023-07-31T06:54:23;1.27;;;1.00;;
5995;SDS011;3026;53.612;7.278;2023-07-31T06:56:51;0.90;;;0.90;;
5995;SDS011;3026;53.612;7.278;2023-07-31T06:59:18;1.37;;;1.00;;
5995;SDS011;3026;53.612;7.278;2023-07-31T07:01:46;2.07;;;1.00;;
5995;SDS011;3026;53.612;7.278;2023-07-31T07:04:14;0.80;;;0.80;;
5995;SDS011;3026;53.612;7.278;2023-07-31T07:06:41;2.20;;;0.80;;
5995;SDS011;3026;53.612;7.278;2023-07-31T07:09:08;0.90;;;0.90;;
5995;SDS011;3026;53.612;7.278;2023-07-31T07:11:36;0.80;;;0.77;;
5995;SDS011;3026;53.612;7.278;2023-07-31T07:14:03;2.07;;;0.90;;
5995;SDS011;3026;53.612;7.278;2023-07-31T07:16:31;1.50;;;1.00;;
5995;SDS011;3026;53.612;7.278;2023-07-31T07:19:01;1.03;;;0.90;;
5995;SDS011;3026;53.612;7.278;2023-07-31T07:21:29;1.50;;;0.80;;
5995;SDS011;3026;53.612;7.278;2023-07-31T07:23:56;0.70;;;0.70;;
5995;SDS011;3026;53.612;7.278;2023-07-31T07:26:28;2.47;;;0.90;;
5995;SDS011;3026;53.612;7.278;2023-07-31T07:28:59;0.70;;;0.70;;
5995;SDS011;3026;53.612;7.278;2023-07-31T07:31:27;1.23;;;1.00;;
5995;SDS011;3026;53.612;7.278;2023-07-31T07:33:56;1.30;;;0.90;;
5995;SDS011;3026;53.612;7.278;2023-07-31T07:36:27;1.83;;;1.00;;
5995;SDS011;3026;53.612;7.278;2023-07-31T07:39:01;1.83;;;1.00;;
5995;SDS011;3026;53.612;7.278;2023-07-31T07:41:29;1.40;;;1.30;;
5995;SDS011;3026;53.612;7.278;2023-07-31T07:43:56;1.57;;;1.00;;
5995;SDS011;3026;53.612;7.278;2023-07-31T07:46:26;0.97;;;0.80;;
5995;SDS011;3026;53.612;7.278;2023-07-31T07:48:53;2.00;;;1.10;;
5995;SDS011;3026;53.612;7.278;2023-07-31T07:51:22;1.13;;;1.03;;
5995;SDS011;3026;53.612;7.278;2023-07-31T07:53:51;1.47;;;1.00;;
5995;SDS011;3026;53.612;7.278;2023-07-31T07:56:18;1.77;;;1.10;;
5995;SDS011;3026;53.612;7.278;2023-07-31T07:58:48;0.97;;;0.90;;
5995;SDS011;3026;53.612;7.278;2023-07-31T08:01:15;1.00;;;0.90;;
5995;SDS011;3026;53.612;7.278;2023-07-31T08:03:43;1.10;;;1.00;;
5995;SDS011;3026;53.612;7.278;2023-07-31T08:06:12;3.17;;;1.27;;
5995;SDS011;3026;53.612;7.278;2023-07-31T08:08:39;1.00;;;0.90;;
5995;SDS011;3026;53.612;7.278;2023-07-31T08:11:08;1.73;;;1.27;;
5995;SDS011;3026;53.612;7.278;2023-07-31T08:13:35;1.20;;;1.10;;
5995;SDS011;3026;53.612;7.278;2023-07-31T08:16:08;1.13;;;1.03;;
5995;SDS011;3026;53.612;7.278;2023-07-31T08:18:35;1.20;;;1.10;;
5995;SDS011;3026;53.612;7.278;2023-07-31T08:21:02;1.53;;;1.20;;
5995;SDS011;3026;53.612;7.278;2023-07-31T08:23:29;1.67;;;0.90;;
5995;SDS011;3026;53.612;7.278;2023-07-31T08:25:56;0.93;;;0.93;;
5995;SDS011;3026;53.612;7.278;2023-07-31T08:28:27;1.37;;;1.10;;
5995;SDS011;3026;53.612;7.278;2023-07-31T08:30:55;1.23;;;1.00;;
5995;SDS011;3026;53.612;7.278;2023-07-31T08:33:22;1.37;;;1.07;;
5995;SDS011;3026;53.612;7.278;2023-07-31T08:35:49;2.00;;;0.83;;
5995;SDS011;3026;53.612;7.278;2023-07-31T08:38:16;1.13;;;1.03;;
5995;SDS011;3026;53.612;7.278;2023-07-31T08:40:44;1.30;;;1.20;;
5995;SDS011;3026;53.612;7.278;2023-07-31T08:43:11;1.53;;;1.10;;
5995;SDS011;3026;53.612;7.278;2023-07-31T08:45:41;1.10;;;1.00;;
5995;SDS011;3026;53.612;7.278;2023-07-31T08:48:09;1.00;;;0.90;;
5995;SDS011;3026;53.612;7.278;2023-07-31T08:50:46;1.10;;;1.00;;
5995;SDS011;3026;53.612;7.278;2023-07-31T09:11:01;1.53;;;0.80;;
5995;SDS011;3026;53.612;7.278;2023-07-31T09:13:32;0.80;;;0.70;;
5995;SDS011;3026;53.612;7.278;2023-07-31T09:16:02;1.00;;;0.73;;
5995;SDS011;3026;53.612;7.278;2023-07-31T09:18:43;1.70;;;1.00;;
5995;SDS011;3026;53.612;7.278;2023-07-31T09:21:24;1.50;;;1.10;;
5995;SDS011;3026;53.612;7.278;2023-07-31T09:23:53;0.93;;;0.87;;
5995;SDS011;3026;53.612;7.278;2023-07-31T09:26:32;0.93;;;0.90;;
5995;SDS011;3026;53.612;7.278;2023-07-31T09:29:00;2.03;;;0.87;;
5995;SDS011;3026;53.612;7.278;2023-07-31T09:34:19;2.20;;;1.50;;
5995;SDS011;3026;53.612;7.278;2023-07-31T09:37:03;1.43;;;1.33;;
5995;SDS011;3026;53.612;7.278;2023-07-31T09:39:31;1.90;;;1.80;;
5995;SDS011;3026;53.612;7.278;2023-07-31T09:42:01;1.67;;;1.57;;
5995;SDS011;3026;53.612;7.278;2023-07-31T09:44:38;1.50;;;1.23;;
5995;SDS011;3026;53.612;7.278;2023-07-31T09:47:20;3.10;;;0.90;;
5995;SDS011;3026;53.612;7.278;2023-07-31T09:49:54;1.50;;;1.33;;
5995;SDS011;3026;53.612;7.278;2023-07-31T09:52:25;2.00;;;0.80;;
5995;SDS011;3026;53.612;7.278;2023-07-31T09:54:52;1.00;;;0.80;;
5995;SDS011;3026;53.612;7.278;2023-07-31T09:57:28;0.50;;;0.50;;
5995;SDS011;3026;53.612;7.278;2023-07-31T09:59:58;0.93;;;0.70;;
5995;SDS011;3026;53.612;7.278;2023-07-31T10:02:27;0.90;;;0.70;;
5995;SDS011;3026;53.612;7.278;2023-07-31T10:04:59;0.80;;;0.80;;
5995;SDS011;3026;53.612;7.278;2023-07-31T10:07:30;1.03;;;1.00;;
5995;SDS011;3026;53.612;7.278;2023-07-31T10:10:01;1.07;;;1.00;;
5995;SDS011;3026;53.612;7.278;2023-07-31T10:12:32;1.03;;;0.90;;
5995;SDS011;3026;53.612;7.278;2023-07-31T10:15:01;5.20;;;1.43;;
5995;SDS011;3026;53.612;7.278;2023-07-31T10:17:29;1.77;;;1.30;;
5995;SDS011;3026;53.612;7.278;2023-07-31T10:19:59;1.37;;;1.17;;
5995;SDS011;3026;53.612;7.278;2023-07-31T10:22:29;0.70;;;0.70;;
5995;SDS011;3026;53.612;7.278;2023-07-31T10:25:36;1.53;;;0.70;;
5995;SDS011;3026;53.612;7.278;2023-07-31T10:28:24;1.30;;;1.00;;
5995;SDS011;3026;53.612;7.278;2023-07-31T10:30:56;8.13;;;1.77;;
5995;SDS011;3026;53.612;7.278;2023-07-31T10:33:23;1.33;;;0.70;;
5995;SDS011;3026;53.612;7.278;2023-07-31T10:35:52;2.00;;;1.00;;
5995;SDS011;3026;53.612;7.278;2023-07-31T10:38:38;0.60;;;0.60;;
5995;SDS011;3026;53.612;7.278;2023-07-31T10:41:12;1.20;;;1.13;;
5995;SDS011;3026;53.612;7.278;2023-07-31T10:43:41;1.13;;;0.60;;
5995;SDS011;3026;53.612;7.278;2023-07-31T10:46:11;0.53;;;0.53;;
5995;SDS011;3026;53.612;7.278;2023-07-31T10:48:40;1.70;;;0.80;;
5995;SDS011;3026;53.612;7.278;2023-07-31T10:51:08;0.77;;;0.77;;
5995;SDS011;3026;53.612;7.278;2023-07-31T10:53:37;0.60;;;0.60;;
5995;SDS011;3026;53.612;7.278;2023-07-31T10:56:08;1.03;;;0.60;;
5995;SDS011;3026;53.612;7.278;2023-07-31T10:58:39;0.77;;;0.60;;
5995;SDS011;3026;53.612;7.278;2023-07-31T11:01:17;0.60;;;0.60;;
5995;SDS011;3026;53.612;7.278;2023-07-31T11:04:44;1.30;;;1.20;;
5995;SDS011;3026;53.612;7.278;2023-07-31T11:08:32;0.60;;;0.60;;
5995;SDS011;3026;53.612;7.278;2023-07-31T11:11:06;0.50;;;0.50;;
5995;SDS011;3026;53.612;7.278;2023-07-31T11:13:43;2.03;;;0.60;;
5995;SDS011;3026;53.612;7.278;2023-07-31T11:16:14;0.50;;;0.50;;
5995;SDS011;3026;53.612;7.278;2023-07-31T11:18:44;0.50;;;0.50;;
5995;SDS011;3026;53.612;7.278;2023-07-31T11:21:16;0.63;;;0.63;;
5995;SDS011;3026;53.612;7.278;2023-07-31T11:23:49;1.23;;;0.50;;
5995;SDS011;3026;53.612;7.278;2023-07-31T11:26:17;0.70;;;0.70;;
5995;SDS011;3026;53.612;7.278;2023-07-31T11:28:51;4.17;;;1.30;;
5995;SDS011;3026;53.612;7.278;2023-07-31T11:31:19;1.87;;;1.10;;
5995;SDS011;3026;53.612;7.278;2023-07-31T11:33:46;0.83;;;0.80;;
5995;SDS011;3026;53.612;7.278;2023-07-31T11:36:15;0.50;;;0.50;;
5995;SDS011;3026;53.612;7.278;2023-07-31T11:38:45;0.50;;;0.50;;
5995;SDS011;3026;53.612;7.278;2023-07-31T11:41:18;0.50;;;0.50;;
5995;SDS011;3026;53.612;7.278;2023-07-31T11:43:49;0.50;;;0.50;;
5995;SDS011;3026;53.612;7.278;2023-07-31T11:46:31;0.40;;;0.40;;
5995;SDS011;3026;53.612;7.278;2023-07-31T11:49:03;1.37;;;0.50;;
5995;SDS011;3026;53.612;7.278;2023-07-31T11:51:30;0.50;;;0.50;;
5995;SDS011;3026;53.612;7.278;2023-07-31T11:54:01;0.60;;;0.60;;
5995;SDS011;3026;53.612;7.278;2023-07-31T11:56:32;0.50;;;0.50;;
5995;SDS011;3026;53.612;7.278;2023-07-31T11:59:00;0.50;;;0.50;;
5995;SDS011;3026;53.612;7.278;2023-07-31T12:01:30;0.50;;;0.50;;
5995;SDS011;3026;53.612;7.278;2023-07-31T12:04:01;0.50;;;0.50;;
5995;SDS011;3026;53.612;7.278;2023-07-31T12:06:32;0.97;;;0.80;;
5995;SDS011;3026;53.612;7.278;2023-07-31T12:09:03;0.80;;;0.80;;
5995;SDS011;3026;53.612;7.278;2023-07-31T12:11:42;0.80;;;0.80;;
5995;SDS011;3026;53.612;7.278;2023-07-31T12:14:21;2.60;;;0.90;;
5995;SDS011;3026;53.612;7.278;2023-07-31T12:17:01;0.90;;;0.90;;
5995;SDS011;3026;53.612;7.278;2023-07-31T12:19:32;2.13;;;1.07;;
5995;SDS011;3026;53.612;7.278;2023-07-31T12:22:12;1.63;;;0.90;;
5995;SDS011;3026;53.612;7.278;2023-07-31T12:24:40;1.07;;;1.03;;
5995;SDS011;3026;53.612;7.278;2023-07-31T12:27:13;0.90;;;0.80;;
5995;SDS011;3026;53.612;7.278;2023-07-31T12:29:45;1.87;;;0.80;;
5995;SDS011;3026;53.612;7.278;2023-07-31T12:32:23;2.77;;;0.93;;
5995;SDS011;3026;53.612;7.278;2023-07-31T12:34:59;2.97;;;0.87;;
5995;SDS011;3026;53.612;7.278;2023-07-31T12:37:32;0.83;;;0.70;;
5995;SDS011;3026;53.612;7.278;2023-07-31T12:40:03;0.80;;;0.80;;
5995;SDS011;3026;53.612;7.278;2023-07-31T12:42:31;1.53;;;0.90;;
5995;SDS011;3026;53.612;7.278;2023-07-31T12:45:04;0.60;;;0.60;;
5995;SDS011;3026;53.612;7.278;2023-07-31T12:47:41;1.40;;;0.87;;
5995;SDS011;3026;53.612;7.278;2023-07-31T12:50:13;1.27;;;0.60;;
5995;SDS011;3026;53.612;7.278;2023-07-31T12:52:43;1.10;;;0.87;;
5995;SDS011;3026;53.612;7.278;2023-07-31T12:55:13;2.30;;;0.80;;
5995;SDS011;3026;53.612;7.278;2023-07-31T12:57:45;0.87;;;0.73;;
5995;SDS011;3026;53.612;7.278;2023-07-31T13:00:37;2.00;;;1.10;;
5995;SDS011;3026;53.612;7.278;2023-07-31T13:03:08;1.00;;;1.00;;
5995;SDS011;3026;53.612;7.278;2023-07-31T13:05:44;3.87;;;1.23;;
5995;SDS011;3026;53.612;7.278;2023-07-31T13:08:16;1.57;;;1.40;;
5995;SDS011;3026;53.612;7.278;2023-07-31T13:10:43;3.20;;;1.23;;
5995;SDS011;3026;53.612;7.278;2023-07-31T13:13:19;3.57;;;1.20;;
5995;SDS011;3026;53.612;7.278;2023-07-31T13:15:51;3.87;;;1.40;;
5995;SDS011;3026;53.612;7.278;2023-07-31T13:18:21;3.03;;;1.40;;
5995;SDS011;3026;53.612;7.278;2023-07-31T13:20:52;2.67;;;1.20;;
5995;SDS011;3026;53.612;7.278;2023-07-31T13:23:19;2.23;;;1.30;;
5995;SDS011;3026;53.612;7.278;2023-07-31T13:25:49;1.90;;;1.20;;
5995;SDS011;3026;53.612;7.278;2023-07-31T13:28:23;3.20;;;1.27;;
5995;SDS011;3026;53.612;7.278;2023-07-31T13:30:52;2.97;;;1.60;;
5995;SDS011;3026;53.612;7.278;2023-07-31T13:33:19;3.90;;;1.50;;
5995;SDS011;3026;53.612;7.278;2023-07-31T13:35:47;3.23;;;1.43;;
5995;SDS011;3026;53.612;7.278;2023-07-31T13:38:15;4.37;;;1.73;;
5995;SDS011;3026;53.612;7.278;2023-07-31T13:40:46;1.83;;;1.43;;
5995;SDS011;3026;53.612;7.278;2023-07-31T13:43:13;2.97;;;1.30;;
5995;SDS011;3026;53.612;7.278;2023-07-31T13:45:43;3.50;;;1.40;;
5995;SDS011;3026;53.612;7.278;2023-07-31T13:48:12;2.30;;;1.50;;
5995;SDS011;3026;53.612;7.278;2023-07-31T13:50:39;3.67;;;1.40;;
5995;SDS011;3026;53.612;7.278;2023-07-31T13:53:06;5.60;;;1.83;;
5995;SDS011;3026;53.612;7.278;2023-07-31T13:55:40;3.23;;;1.37;;
5995;SDS011;3026;53.612;7.278;2023-07-31T13:58:10;3.10;;;1.20;;
5995;SDS011;3026;53.612;7.278;2023-07-31T14:00:37;3.50;;;1.70;;
5995;SDS011;3026;53.612;7.278;2023-07-31T14:03:05;2.83;;;1.43;;
5995;SDS011;3026;53.612;7.278;2023-07-31T14:05:34;3.03;;;1.30;;
5995;SDS011;3026;53.612;7.278;2023-07-31T14:08:01;2.77;;;1.17;;
5995;SDS011;3026;53.612;7.278;2023-07-31T14:10:28;3.20;;;1.33;;
5995;SDS011;3026;53.612;7.278;2023-07-31T14:12:58;1.30;;;1.17;;
5995;SDS011;3026;53.612;7.278;2023-07-31T14:15:30;1.50;;;1.37;;
5995;SDS011;3026;53.612;7.278;2023-07-31T14:18:01;2.07;;;1.30;;
5995;SDS011;3026;53.612;7.278;2023-07-31T14:20:28;1.80;;;1.40;;
5995;SDS011;3026;53.612;7.278;2023-07-31T14:22:57;4.50;;;1.67;;
5995;SDS011;3026;53.612;7.278;2023-07-31T14:25:25;2.30;;;1.40;;
5995;SDS011;3026;53.612;7.278;2023-07-31T14:27:52;3.13;;;1.40;;
5995;SDS011;3026;53.612;7.278;2023-07-31T14:30:22;1.20;;;1.10;;
5995;SDS011;3026;53.612;7.278;2023-07-31T14:32:49;4.03;;;1.20;;
5995;SDS011;3026;53.612;7.278;2023-07-31T14:35:16;3.33;;;1.40;;
5995;SDS011;3026;53.612;7.278;2023-07-31T14:37:44;2.53;;;1.23;;
5995;SDS011;3026;53.612;7.278;2023-07-31T14:40:13;4.60;;;1.27;;
5995;SDS011;3026;53.612;7.278;2023-07-31T14:42:40;6.80;;;1.33;;
5995;SDS011;3026;53.612;7.278;2023-07-31T14:45:09;2.77;;;1.53;;
5995;SDS011;3026;53.612;7.278;2023-07-31T14:47:37;2.50;;;1.30;;
5995;SDS011;3026;53.612;7.278;2023-07-31T14:50:04;4.17;;;1.37;;
5995;SDS011;3026;53.612;7.278;2023-07-31T14:52:32;3.93;;;1.80;;
5995;SDS011;3026;53.612;7.278;2023-07-31T14:54:59;6.10;;;1.70;;
5995;SDS011;3026;53.612;7.278;2023-07-31T14:57:35;4.70;;;1.60;;
5995;SDS011;3026;53.612;7.278;2023-07-31T15:00:02;1.70;;;1.50;;
5995;SDS011;3026;53.612;7.278;2023-07-31T15:02:33;3.17;;;1.50;;
5995;SDS011;3026;53.612;7.278;2023-07-31T15:05:04;5.33;;;1.60;;
5995;SDS011;3026;53.612;7.278;2023-07-31T15:07:31;1.60;;;1.50;;
5995;SDS011;3026;53.612;7.278;2023-07-31T15:09:59;5.53;;;1.80;;
5995;SDS011;3026;53.612;7.278;2023-07-31T15:12:28;2.87;;;1.70;;
5995;SDS011;3026;53.612;7.278;2023-07-31T15:15:03;4.00;;;1.70;;
5995;SDS011;3026;53.612;7.278;2023-07-31T15:17:31;3.53;;;1.90;;
5995;SDS011;3026;53.612;7.278;2023-07-31T15:19:58;4.87;;;2.30;;
5995;SDS011;3026;53.612;7.278;2023-07-31T15:22:27;6.27;;;1.93;;
5995;SDS011;3026;53.612;7.278;2023-07-31T15:24:55;5.33;;;2.20;;
5995;SDS011;3026;53.612;7.278;2023-07-31T15:27:23;5.30;;;2.20;;
5995;SDS011;3026;53.612;7.278;2023-07-31T15:29:54;5.87;;;1.80;;
5995;SDS011;3026;53.612;7.278;2023-07-31T15:32:21;5.90;;;1.90;;
5995;SDS011;3026;53.612;7.278;2023-07-31T15:34:49;9.00;;;2.10;;
5995;SDS011;3026;53.612;7.278;2023-07-31T15:37:19;5.97;;;2.57;;
5995;SDS011;3026;53.612;7.278;2023-07-31T15:39:46;5.43;;;2.23;;
5995;SDS011;3026;53.612;7.278;2023-07-31T15:42:18;6.73;;;2.33;;
5995;SDS011;3026;53.612;7.278;2023-07-31T15:44:48;10.43;;;2.73;;
5995;SDS011;3026;53.612;7.278;2023-07-31T15:47:18;8.07;;;2.63;;
5995;SDS011;3026;53.612;7.278;2023-07-31T15:49:45;7.60;;;2.50;;
5995;SDS011;3026;53.612;7.278;2023-07-31T15:52:12;5.53;;;2.20;;
5995;SDS011;3026;53.612;7.278;2023-07-31T15:54:42;6.00;;;1.97;;
5995;SDS011;3026;53.612;7.278;2023-07-31T15:57:09;5.27;;;2.20;;
5995;SDS011;3026;53.612;7.278;2023-07-31T15:59:39;6.90;;;2.60;;